createdAt,value
2019-05-25T00:00:01.465Z,310.37
2019-05-25T00:01:01.453Z,307.22
2019-05-25T00:02:01.462Z,306.40
2019-05-25T00:03:01.448Z,308.29
2019-05-25T00:04:01.437Z,308.40
2019-05-25T00:05:01.420Z,309.60
2019-05-25T00:06:01.405Z,311.84
2019-05-25T00:07:01.410Z,310.37
2019-05-25T00:08:01.365Z,308.80
2019-05-25T00:09:01.385Z,306.74
2019-05-25T00:10:01.361Z,309.98
2019-05-25T00:11:01.336Z,308.99
2019-05-25T00:12:01.334Z,308.99
2019-05-25T00:13:01.314Z,308.56
2019-05-25T00:14:01.311Z,310.49
2019-05-25T00:15:01.382Z,309.86
2019-05-25T00:16:01.306Z,310.52
2019-05-25T00:17:01.298Z,310.25
2019-05-25T00:18:01.265Z,310.94
2019-05-25T00:19:01.270Z,311.38
2019-05-25T00:20:01.241Z,312.61
2019-05-25T00:21:01.230Z,312.41
2019-05-25T00:22:01.242Z,309.90
2019-05-25T00:23:01.232Z,310.61
2019-05-25T00:24:11.726Z,309.88
2019-05-25T00:25:02.199Z,313.89
2019-05-25T00:26:01.187Z,311.02
2019-05-25T00:27:01.181Z,310.17
2019-05-25T00:28:01.156Z,311.06
2019-05-25T00:29:01.148Z,312.20
2019-05-25T00:30:01.147Z,312.35
2019-05-25T00:31:01.122Z,312.00
2019-05-25T00:32:01.118Z,311.65
2019-05-25T00:33:01.113Z,311.56
2019-05-25T00:34:01.081Z,310.95
2019-05-25T00:35:01.071Z,313.70
2019-05-25T00:36:01.075Z,311.14
2019-05-25T00:37:01.062Z,314.89
2019-05-25T00:38:01.069Z,312.41
2019-05-25T00:39:01.038Z,311.37
2019-05-25T00:40:01.016Z,312.89
2019-05-25T00:41:01.010Z,313.89
2019-05-25T00:42:01.020Z,312.48
2019-05-25T00:43:01.000Z,311.32
2019-05-25T00:44:00.970Z,310.97
2019-05-25T00:45:00.952Z,313.16
2019-05-25T00:46:00.950Z,312.25
2019-05-25T00:47:00.940Z,311.13
2019-05-25T00:48:00.970Z,313.84
2019-05-25T00:49:00.930Z,312.35
2019-05-25T00:50:00.929Z,312.52
2019-05-25T00:51:00.906Z,315.58
2019-05-25T00:52:00.883Z,313.42
2019-05-25T00:53:00.890Z,313.14
2019-05-25T00:54:00.862Z,312.35
2019-05-25T00:55:00.857Z,312.64
2019-05-25T00:56:00.847Z,313.74
2019-05-25T00:57:00.839Z,310.90
2019-05-25T00:58:00.836Z,313.40
2019-05-25T00:59:00.811Z,313.02
2019-05-25T01:00:00.810Z,312.46
2019-05-25T01:01:00.838Z,312.77
2019-05-25T01:02:00.780Z,311.83
2019-05-25T01:03:00.795Z,313.53
2019-05-25T01:04:00.755Z,313.24
2019-05-25T01:05:00.731Z,311.80
2019-05-25T01:06:00.731Z,314.58
2019-05-25T01:07:00.713Z,313.26
2019-05-25T01:08:00.741Z,312.18
2019-05-25T01:09:00.765Z,312.80
2019-05-25T01:10:00.711Z,313.59
2019-05-25T01:11:00.676Z,311.47
2019-05-25T01:12:00.659Z,311.54
2019-05-25T01:13:00.654Z,313.11
2019-05-25T01:14:00.683Z,312.73
2019-05-25T01:15:00.633Z,311.59
2019-05-25T01:16:00.623Z,312.68
2019-05-25T01:17:00.600Z,312.17
2019-05-25T01:18:00.607Z,313.12
2019-05-25T01:19:00.576Z,312.68
2019-05-25T01:20:00.623Z,311.15
2019-05-25T01:21:00.569Z,314.71
2019-05-25T01:22:00.553Z,311.74
2019-05-25T01:23:00.549Z,311.33
2019-05-25T01:24:00.523Z,311.21
2019-05-25T01:25:00.532Z,311.09
2019-05-25T01:26:00.501Z,311.10
2019-05-25T01:27:00.493Z,310.93
2019-05-25T01:28:00.487Z,311.20
2019-05-25T01:29:00.475Z,312.13
2019-05-25T01:30:00.477Z,311.57
2019-05-25T01:31:00.518Z,311.13
2019-05-25T01:32:00.444Z,310.56
2019-05-25T01:33:00.446Z,312.11
2019-05-25T01:34:00.420Z,311.92
2019-05-25T01:35:00.415Z,313.10
2019-05-25T01:36:00.410Z,311.23
2019-05-25T01:37:00.380Z,312.33
2019-05-25T01:38:00.396Z,311.71
2019-05-25T01:39:00.362Z,313.68
2019-05-25T01:40:00.358Z,312.85
2019-05-25T01:41:00.358Z,312.98
2019-05-25T01:42:00.354Z,312.71
2019-05-25T01:43:00.332Z,313.49
2019-05-25T01:44:00.303Z,312.20
2019-05-25T01:45:00.302Z,310.77
2019-05-25T01:46:00.294Z,311.23
2019-05-25T01:47:00.295Z,313.01
2019-05-25T01:48:00.256Z,311.85
2019-05-25T01:49:00.251Z,312.42
2019-05-25T01:50:00.260Z,311.60
2019-05-25T01:51:00.267Z,311.22
2019-05-25T01:52:00.242Z,312.97
2019-05-25T01:53:00.226Z,312.25
2019-05-25T01:54:00.201Z,310.72
2019-05-25T01:55:00.583Z,312.49
2019-05-25T01:56:00.188Z,311.69
2019-05-25T01:57:00.156Z,311.14
2019-05-25T01:58:00.167Z,311.75
2019-05-25T01:59:00.140Z,311.69
2019-05-25T02:00:00.133Z,311.98
2019-05-25T02:01:00.133Z,311.10
2019-05-25T02:02:00.116Z,311.48
2019-05-25T02:03:00.116Z,312.16
2019-05-25T02:04:00.099Z,312.12
2019-05-25T02:05:00.092Z,312.30
2019-05-25T02:06:00.072Z,311.62
2019-05-25T02:07:00.055Z,312.35
2019-05-25T02:08:00.048Z,312.62
2019-05-25T02:09:00.054Z,312.34
2019-05-25T02:10:00.018Z,312.14
2019-05-25T02:10:59.999Z,311.92
2019-05-25T02:12:00.016Z,312.63
2019-05-25T02:12:59.999Z,312.22
2019-05-25T02:13:59.999Z,312.00
2019-05-25T02:14:59.973Z,311.14
2019-05-25T02:15:59.950Z,313.41
2019-05-25T02:16:59.945Z,312.33
2019-05-25T02:17:59.946Z,312.94
2019-05-25T02:18:59.941Z,312.87
2019-05-25T02:19:59.909Z,312.10
2019-05-25T02:20:59.902Z,311.74
2019-05-25T02:21:59.884Z,312.98
2019-05-25T02:22:59.875Z,312.35
2019-05-25T02:23:59.887Z,311.27
2019-05-25T02:25:14.486Z,312.61
2019-05-25T02:26:00.857Z,313.14
2019-05-25T02:26:59.842Z,312.47
2019-05-25T02:27:59.821Z,312.60
2019-05-25T02:28:59.812Z,312.00
2019-05-25T02:29:59.794Z,313.23
2019-05-25T02:30:59.794Z,312.06
2019-05-25T02:31:59.779Z,313.84
2019-05-25T02:32:59.783Z,311.40
2019-05-25T02:33:59.763Z,313.34
2019-05-25T02:34:59.753Z,312.25
2019-05-25T02:35:59.737Z,312.70
2019-05-25T02:36:59.800Z,313.03
2019-05-25T02:37:59.715Z,310.67
2019-05-25T02:38:59.716Z,314.00
2019-05-25T02:39:59.679Z,312.47
2019-05-25T02:40:59.674Z,312.38
2019-05-25T02:41:59.666Z,313.24
2019-05-25T02:42:59.652Z,313.60
2019-05-25T02:43:59.683Z,313.65
2019-05-25T02:44:59.653Z,312.93
2019-05-25T02:45:59.631Z,312.85
2019-05-25T02:46:59.618Z,313.14
2019-05-25T02:47:59.604Z,314.22
2019-05-25T02:48:59.617Z,311.71
2019-05-25T02:49:59.585Z,312.19
2019-05-25T02:50:59.568Z,311.56
2019-05-25T02:51:59.552Z,313.68
2019-05-25T02:52:59.545Z,313.69
2019-05-25T02:53:59.559Z,312.96
2019-05-25T02:54:59.521Z,312.29
2019-05-25T02:55:59.522Z,312.82
2019-05-25T02:56:59.504Z,313.97
2019-05-25T02:57:59.498Z,313.05
2019-05-25T02:58:59.493Z,313.42
2019-05-25T02:59:59.463Z,314.80
2019-05-25T03:00:59.450Z,314.08
2019-05-25T03:01:59.445Z,312.72
2019-05-25T03:02:59.431Z,312.97
2019-05-25T03:03:59.439Z,313.86
2019-05-25T03:04:59.422Z,313.45
2019-05-25T03:05:59.394Z,314.81
2019-05-25T03:06:59.383Z,314.18
2019-05-25T03:07:59.397Z,314.74
2019-05-25T03:08:59.390Z,315.52
2019-05-25T03:09:59.364Z,314.28
2019-05-25T03:10:59.361Z,314.47
2019-05-25T03:11:59.332Z,315.03
2019-05-25T03:12:59.315Z,314.81
2019-05-25T03:13:59.335Z,314.79
2019-05-25T03:14:59.310Z,315.47
2019-05-25T03:15:59.287Z,314.22
2019-05-25T03:16:59.296Z,315.85
2019-05-25T03:17:59.267Z,314.67
2019-05-25T03:18:59.276Z,314.52
2019-05-25T03:19:59.247Z,315.46
2019-05-25T03:20:59.235Z,315.14
2019-05-25T03:21:59.229Z,315.60
2019-05-25T03:22:59.264Z,315.17
2019-05-25T03:23:59.212Z,313.73
2019-05-25T03:24:59.187Z,313.80
2019-05-25T03:25:59.176Z,314.59
2019-05-25T03:26:59.152Z,313.08
2019-05-25T03:27:59.161Z,313.45
2019-05-25T03:28:59.172Z,313.73
2019-05-25T03:29:59.137Z,312.45
2019-05-25T03:30:59.123Z,313.00
2019-05-25T03:31:59.113Z,312.92
2019-05-25T03:32:59.088Z,314.24
2019-05-25T03:33:59.101Z,314.31
2019-05-25T03:34:59.091Z,315.40
2019-05-25T03:35:59.078Z,315.73
2019-05-25T03:36:59.058Z,315.75
2019-05-25T03:37:59.051Z,315.67
2019-05-25T03:38:59.024Z,315.73
2019-05-25T03:39:59.047Z,315.82
2019-05-25T03:40:59.022Z,316.63
2019-05-25T03:41:59.017Z,315.38
2019-05-25T03:42:58.991Z,315.37
2019-05-25T03:43:58.980Z,316.20
2019-05-25T03:44:58.967Z,315.41
2019-05-25T03:45:58.967Z,314.24
2019-05-25T03:46:58.932Z,313.74
2019-05-25T03:47:58.967Z,314.60
2019-05-25T03:48:58.952Z,314.53
2019-05-25T03:49:58.918Z,314.32
2019-05-25T03:50:58.914Z,314.76
2019-05-25T03:51:58.883Z,314.12
2019-05-25T03:52:58.890Z,315.02
2019-05-25T03:53:58.860Z,315.14
2019-05-25T03:54:58.861Z,315.90
2019-05-25T03:56:05.907Z,316.10
2019-05-25T03:56:59.827Z,313.62
2019-05-25T03:57:58.815Z,313.42
2019-05-25T03:58:58.821Z,314.33
2019-05-25T03:59:58.802Z,314.09
2019-05-25T04:00:58.799Z,314.16
2019-05-25T04:01:58.797Z,314.60
2019-05-25T04:02:58.766Z,313.79
2019-05-25T04:03:58.754Z,315.54
2019-05-25T04:04:58.746Z,314.15
2019-05-25T04:05:58.726Z,313.81
2019-05-25T04:06:58.721Z,314.89
2019-05-25T04:07:58.714Z,314.10
2019-05-25T04:08:58.721Z,312.89
2019-05-25T04:09:58.687Z,315.26
2019-05-25T04:10:58.667Z,314.92
2019-05-25T04:11:58.670Z,312.83
2019-05-25T04:12:58.678Z,313.55
2019-05-25T04:13:58.660Z,313.72
2019-05-25T04:14:58.636Z,318.33
2019-05-25T04:15:58.624Z,315.98
2019-05-25T04:16:58.599Z,315.84
2019-05-25T04:17:58.801Z,315.31
2019-05-25T04:18:58.585Z,316.31
2019-05-25T04:19:58.598Z,314.28
2019-05-25T04:20:58.572Z,314.72
2019-05-25T04:21:58.574Z,316.19
2019-05-25T04:22:58.552Z,316.15
2019-05-25T04:23:58.542Z,314.63
2019-05-25T04:24:58.528Z,315.59
2019-05-25T04:25:58.517Z,316.22
2019-05-25T04:26:58.508Z,315.70
2019-05-25T04:27:58.474Z,314.22
2019-05-25T04:28:58.494Z,314.57
2019-05-25T04:29:58.469Z,314.00
2019-05-25T04:30:58.456Z,314.92
2019-05-25T04:31:58.449Z,314.66
2019-05-25T04:32:58.437Z,314.01
2019-05-25T04:33:58.419Z,314.22
2019-05-25T04:34:58.431Z,313.09
2019-05-25T04:35:58.401Z,315.39
2019-05-25T04:36:58.386Z,315.92
2019-05-25T04:37:58.377Z,314.67
2019-05-25T04:38:58.371Z,313.59
2019-05-25T04:39:58.380Z,315.15
2019-05-25T04:40:58.348Z,313.72
2019-05-25T04:41:58.324Z,313.34
2019-05-25T04:42:58.314Z,315.36
2019-05-25T04:43:58.315Z,314.29
2019-05-25T04:44:58.316Z,314.38
2019-05-25T04:45:58.317Z,313.72
2019-05-25T04:46:58.316Z,314.49
2019-05-25T04:47:58.267Z,313.69
2019-05-25T04:48:58.246Z,313.55
2019-05-25T04:49:58.258Z,314.65
2019-05-25T04:50:58.219Z,313.98
2019-05-25T04:51:58.226Z,313.50
2019-05-25T04:52:58.209Z,314.39
2019-05-25T04:53:58.213Z,315.26
2019-05-25T04:54:58.204Z,313.12
2019-05-25T04:55:58.181Z,313.76
2019-05-25T04:56:58.160Z,312.86
2019-05-25T04:57:58.173Z,312.92
2019-05-25T04:58:58.168Z,312.91
2019-05-25T04:59:58.137Z,312.91
2019-05-25T05:00:58.123Z,312.58
2019-05-25T05:01:58.123Z,313.16
2019-05-25T05:02:58.095Z,311.55
2019-05-25T05:03:58.090Z,313.32
2019-05-25T05:04:58.099Z,311.97
2019-05-25T05:05:58.089Z,312.25
2019-05-25T05:06:58.066Z,313.12
2019-05-25T05:07:58.043Z,313.29
2019-05-25T05:08:58.029Z,312.62
2019-05-25T05:10:02.788Z,314.05
2019-05-25T05:10:59.017Z,313.89
2019-05-25T05:11:57.998Z,310.88
2019-05-25T05:12:58.000Z,310.18
2019-05-25T05:13:57.971Z,311.00
2019-05-25T05:14:57.963Z,312.99
2019-05-25T05:15:57.996Z,312.87
2019-05-25T05:16:57.956Z,312.31
2019-05-25T05:17:57.941Z,311.24
2019-05-25T05:18:57.940Z,311.94
2019-05-25T05:19:57.898Z,310.20
2019-05-25T05:20:57.920Z,311.61
2019-05-25T05:21:57.877Z,309.90
2019-05-25T05:22:57.880Z,311.11
2019-05-25T05:23:57.874Z,311.79
2019-05-25T05:24:57.874Z,310.65
2019-05-25T05:25:57.851Z,309.59
2019-05-25T05:26:57.852Z,309.53
2019-05-25T05:27:57.821Z,309.83
2019-05-25T05:28:57.807Z,309.94
2019-05-25T05:29:57.806Z,310.10
2019-05-25T05:30:57.806Z,309.22
2019-05-25T05:31:57.791Z,310.09
2019-05-25T05:32:57.775Z,315.48
2019-05-25T05:33:57.759Z,312.30
2019-05-25T05:34:57.751Z,311.19
2019-05-25T05:35:57.739Z,312.65
2019-05-25T05:36:57.743Z,311.08
2019-05-25T05:37:57.713Z,310.64
2019-05-25T05:38:57.713Z,312.29
2019-05-25T05:39:57.714Z,310.70
2019-05-25T05:40:57.673Z,309.82
2019-05-25T05:41:57.681Z,309.35
2019-05-25T05:42:57.677Z,310.78
2019-05-25T05:43:57.657Z,310.61
2019-05-25T05:44:57.664Z,310.39
2019-05-25T05:45:57.626Z,310.35
2019-05-25T05:46:57.617Z,311.19
2019-05-25T05:47:57.627Z,309.87
2019-05-25T05:48:57.616Z,311.23
2019-05-25T05:49:57.597Z,308.42
2019-05-25T05:50:57.570Z,307.58
2019-05-25T05:51:57.558Z,308.86
2019-05-25T05:52:57.537Z,311.41
2019-05-25T05:53:57.556Z,309.55
2019-05-25T05:54:57.561Z,311.46
2019-05-25T05:55:57.519Z,312.59
2019-05-25T05:57:11.144Z,310.22
2019-05-25T05:57:58.508Z,310.87
2019-05-25T05:58:57.483Z,311.70
2019-05-25T05:59:57.481Z,312.31
2019-05-25T06:00:57.462Z,311.63
2019-05-25T06:01:57.443Z,309.56
2019-05-25T06:02:57.448Z,308.65
2019-05-25T06:03:57.418Z,310.23
2019-05-25T06:04:57.421Z,309.35
2019-05-25T06:05:57.395Z,311.98
2019-05-25T06:06:57.401Z,309.31
2019-05-25T06:07:57.381Z,311.11
2019-05-25T06:08:57.372Z,310.51
2019-05-25T06:09:57.385Z,309.31
2019-05-25T06:10:57.353Z,308.42
2019-05-25T06:11:57.323Z,308.69
2019-05-25T06:12:57.328Z,309.26
2019-05-25T06:13:57.312Z,308.55
2019-05-25T06:14:57.298Z,307.88
2019-05-25T06:15:57.309Z,310.70
2019-05-25T06:16:57.302Z,307.36
2019-05-25T06:17:57.267Z,306.68
2019-05-25T06:18:57.264Z,308.49
2019-05-25T06:19:57.255Z,303.79
2019-05-25T06:20:57.262Z,306.45
2019-05-25T06:21:57.234Z,307.69
2019-05-25T06:22:57.236Z,307.86
2019-05-25T06:23:57.197Z,308.85
2019-05-25T06:24:57.184Z,306.51
2019-05-25T06:25:57.199Z,307.50
2019-05-25T06:26:57.160Z,308.83
2019-05-25T06:27:57.175Z,307.02
2019-05-25T06:28:57.177Z,305.56
2019-05-25T06:29:57.144Z,308.52
2019-05-25T06:30:57.160Z,307.12
2019-05-25T06:31:57.126Z,310.51
2019-05-25T06:32:57.103Z,306.11
2019-05-25T06:33:57.116Z,309.75
2019-05-25T06:34:57.095Z,304.72
2019-05-25T06:35:57.079Z,310.29
2019-05-25T06:36:57.077Z,308.02
2019-05-25T06:37:57.048Z,306.68
2019-05-25T06:38:57.039Z,305.50
2019-05-25T06:39:57.044Z,307.40
2019-05-25T06:40:57.023Z,308.06
2019-05-25T06:41:57.038Z,307.92
2019-05-25T06:42:56.998Z,309.90
2019-05-25T06:43:56.978Z,305.34
2019-05-25T06:44:56.981Z,308.41
2019-05-25T06:45:56.977Z,303.73
2019-05-25T06:46:56.964Z,306.13
2019-05-25T06:47:56.963Z,306.09
2019-05-25T06:48:56.950Z,308.93
2019-05-25T06:49:56.938Z,306.45
2019-05-25T06:50:56.922Z,304.09
2019-05-25T06:51:56.939Z,305.65
2019-05-25T06:52:58.083Z,303.90
2019-05-25T06:53:56.889Z,308.78
2019-05-25T06:54:56.878Z,310.38
2019-05-25T06:55:56.871Z,305.21
2019-05-25T06:56:56.853Z,301.61
2019-05-25T06:57:56.869Z,305.04
2019-05-25T06:58:56.830Z,301.10
2019-05-25T06:59:56.827Z,299.05
2019-05-25T07:00:56.818Z,305.26
2019-05-25T07:01:56.821Z,305.77
2019-05-25T07:02:56.812Z,302.21
2019-05-25T07:03:56.774Z,304.07
2019-05-25T07:04:56.804Z,302.56
2019-05-25T07:05:56.784Z,306.19
2019-05-25T07:06:56.812Z,306.43
2019-05-25T07:07:56.927Z,307.68
2019-05-25T07:08:57.561Z,304.74
2019-05-25T07:09:56.780Z,301.04
2019-05-25T07:10:58.660Z,303.97
2019-05-25T07:11:56.695Z,304.52
2019-05-25T07:12:56.692Z,305.43
2019-05-25T07:13:56.690Z,305.77
2019-05-25T07:14:56.673Z,307.11
2019-05-25T07:15:56.661Z,308.92
2019-05-25T07:16:56.649Z,310.13
2019-05-25T07:17:56.622Z,307.53
2019-05-25T07:18:56.609Z,304.04
2019-05-25T07:19:56.639Z,303.63
2019-05-25T07:20:56.614Z,308.47
2019-05-25T07:21:56.584Z,304.47
2019-05-25T07:22:56.595Z,304.49
2019-05-25T07:23:56.564Z,304.48
2019-05-25T07:24:56.577Z,309.93
2019-05-25T07:25:56.585Z,308.33
2019-05-25T07:26:56.556Z,306.81
2019-05-25T07:28:00.066Z,307.13
2019-05-25T07:28:56.501Z,308.44
2019-05-25T07:29:56.526Z,306.19
2019-05-25T07:30:56.517Z,307.59
2019-05-25T07:31:56.469Z,308.03
2019-05-25T07:32:56.451Z,309.30
2019-05-25T07:33:56.456Z,307.67
2019-05-25T07:34:56.438Z,307.76
2019-05-25T07:35:56.552Z,309.48
2019-05-25T07:36:56.423Z,310.77
2019-05-25T07:37:56.415Z,308.02
2019-05-25T07:38:56.395Z,308.24
2019-05-25T07:39:56.390Z,309.45
2019-05-25T07:40:56.386Z,309.20
2019-05-25T07:41:56.385Z,312.14
2019-05-25T07:42:56.355Z,314.80
2019-05-25T07:43:56.332Z,310.67
2019-05-25T07:44:56.329Z,308.93
2019-05-25T07:45:56.305Z,313.13
2019-05-25T07:46:56.311Z,314.32
2019-05-25T07:47:56.307Z,312.84
2019-05-25T07:48:56.294Z,313.07
2019-05-25T07:49:56.282Z,311.06
2019-05-25T07:50:56.268Z,311.05
2019-05-25T07:51:56.255Z,310.95
2019-05-25T07:52:56.254Z,312.93
2019-05-25T07:53:56.231Z,309.06
2019-05-25T07:54:56.225Z,309.73
2019-05-25T07:55:56.209Z,309.57
2019-05-25T07:56:56.199Z,310.74
2019-05-25T07:57:56.183Z,316.26
2019-05-25T07:58:56.153Z,309.24
2019-05-25T07:59:56.161Z,310.50
2019-05-25T08:00:56.167Z,311.32
2019-05-25T08:01:56.166Z,309.55
2019-05-25T08:02:56.149Z,309.00
2019-05-25T08:03:56.109Z,313.97
2019-05-25T08:04:56.100Z,310.84
2019-05-25T08:05:56.078Z,311.57
2019-05-25T08:06:56.099Z,312.08
2019-05-25T08:07:56.099Z,310.64
2019-05-25T08:08:56.070Z,311.91
2019-05-25T08:09:56.048Z,310.87
2019-05-25T08:10:56.032Z,312.01
2019-05-25T08:11:56.043Z,310.51
2019-05-25T08:12:56.044Z,311.55
2019-05-25T08:13:56.016Z,311.94
2019-05-25T08:14:56.004Z,312.44
2019-05-25T08:15:55.994Z,313.73
2019-05-25T08:16:55.975Z,311.52
2019-05-25T08:17:55.977Z,314.95
2019-05-25T08:18:55.950Z,312.67
2019-05-25T08:19:55.960Z,309.94
2019-05-25T08:20:55.932Z,313.82
2019-05-25T08:21:55.930Z,311.34
2019-05-25T08:22:55.936Z,310.57
2019-05-25T08:23:55.895Z,311.06
2019-05-25T08:24:55.885Z,313.22
2019-05-25T08:25:55.888Z,311.25
2019-05-25T08:26:55.883Z,312.61
2019-05-25T08:27:55.856Z,312.80
2019-05-25T08:28:55.849Z,311.97
2019-05-25T08:29:55.835Z,312.62
2019-05-25T08:30:55.818Z,309.88
2019-05-25T08:31:55.910Z,312.78
2019-05-25T08:32:55.803Z,309.02
2019-05-25T08:33:55.805Z,310.55
2019-05-25T08:34:55.802Z,309.67
2019-05-25T08:35:55.764Z,314.87
2019-05-25T08:36:55.758Z,314.01
2019-05-25T08:37:55.740Z,311.70
2019-05-25T08:38:55.734Z,310.57
2019-05-25T08:39:55.743Z,311.14
2019-05-25T08:40:55.719Z,312.72
2019-05-25T08:41:55.696Z,312.18
2019-05-25T08:42:55.686Z,311.33
2019-05-25T08:43:55.689Z,314.00
2019-05-25T08:44:55.684Z,312.56
2019-05-25T08:45:55.666Z,314.85
2019-05-25T08:46:55.775Z,311.57
2019-05-25T08:47:57.241Z,310.70
2019-05-25T08:48:55.636Z,311.50
2019-05-25T08:49:56.124Z,313.05
2019-05-25T08:50:55.603Z,312.32
2019-05-25T08:51:55.585Z,312.41
2019-05-25T08:52:55.631Z,313.35
2019-05-25T08:53:55.567Z,309.76
2019-05-25T08:54:56.651Z,311.28
2019-05-25T08:55:55.544Z,311.59
2019-05-25T08:56:55.627Z,314.22
2019-05-25T08:57:55.531Z,313.67
2019-05-25T08:58:55.797Z,311.82
2019-05-25T08:59:55.504Z,312.51
2019-05-25T09:00:55.509Z,312.18
2019-05-25T09:01:55.472Z,310.36
2019-05-25T09:02:55.461Z,312.86
2019-05-25T09:03:55.464Z,311.02
2019-05-25T09:04:55.447Z,314.33
2019-05-25T09:05:55.455Z,311.52
2019-05-25T09:06:55.427Z,315.09
2019-05-25T09:07:55.451Z,310.74
2019-05-25T09:08:55.408Z,311.27
2019-05-25T09:09:55.402Z,310.16
2019-05-25T09:10:55.401Z,313.23
2019-05-25T09:11:55.390Z,309.72
2019-05-25T09:12:55.368Z,309.77
2019-05-25T09:13:55.350Z,312.07
2019-05-25T09:14:55.340Z,313.88
2019-05-25T09:15:55.355Z,313.20
2019-05-25T09:16:55.346Z,314.57
2019-05-25T09:17:55.318Z,311.99
2019-05-25T09:18:55.296Z,313.13
2019-05-25T09:19:55.281Z,310.15
2019-05-25T09:20:55.272Z,311.94
2019-05-25T09:22:02.601Z,309.89
2019-05-25T09:22:56.249Z,314.02
2019-05-25T09:23:55.253Z,312.56
2019-05-25T09:24:55.232Z,311.95
2019-05-25T09:25:55.218Z,313.35
2019-05-25T09:26:55.222Z,310.82
2019-05-25T09:27:55.192Z,310.26
2019-05-25T09:29:03.958Z,311.94
2019-05-25T09:29:56.175Z,311.18
2019-05-25T09:30:55.195Z,313.02
2019-05-25T09:31:55.177Z,309.52
2019-05-25T09:32:55.206Z,310.28
2019-05-25T09:33:55.118Z,310.91
2019-05-25T09:34:55.127Z,311.69
2019-05-25T09:35:55.139Z,312.13
2019-05-25T09:36:55.111Z,312.32
2019-05-25T09:37:55.083Z,311.20
2019-05-25T09:38:55.076Z,311.36
2019-05-25T09:39:55.054Z,313.38
2019-05-25T09:40:55.060Z,311.26
2019-05-25T09:41:55.025Z,311.28
2019-05-25T09:42:55.033Z,312.30
2019-05-25T09:43:55.021Z,313.91
2019-05-25T09:44:55.013Z,311.71
2019-05-25T09:45:54.992Z,310.79
2019-05-25T09:46:54.975Z,309.67
2019-05-25T09:47:55.039Z,308.13
2019-05-25T09:48:54.966Z,312.57
2019-05-25T09:49:54.960Z,309.15
2019-05-25T09:50:54.963Z,309.20
2019-05-25T09:51:54.935Z,308.08
2019-05-25T09:52:54.902Z,308.20
2019-05-25T09:53:54.919Z,311.03
2019-05-25T09:54:55.705Z,309.99
2019-05-25T09:55:54.895Z,309.72
2019-05-25T09:56:54.891Z,312.84
2019-05-25T09:57:54.865Z,311.05
2019-05-25T09:58:54.876Z,310.92
2019-05-25T09:59:54.833Z,306.98
2019-05-25T10:00:54.830Z,309.09
2019-05-25T10:01:54.847Z,306.38
2019-05-25T10:02:54.860Z,311.04
2019-05-25T10:03:56.742Z,309.32
2019-05-25T10:04:54.817Z,314.46
2019-05-25T10:05:54.800Z,309.49
2019-05-25T10:06:54.762Z,306.34
2019-05-25T10:07:54.791Z,312.00
2019-05-25T10:08:54.743Z,308.53
2019-05-25T10:09:54.753Z,309.98
2019-05-25T10:10:54.743Z,308.70
2019-05-25T10:11:54.711Z,307.12
2019-05-25T10:12:54.699Z,308.00
2019-05-25T10:13:54.682Z,310.16
2019-05-25T10:14:54.694Z,309.41
2019-05-25T10:15:54.665Z,307.28
2019-05-25T10:16:54.659Z,307.64
2019-05-25T10:17:54.662Z,307.19
2019-05-25T10:18:54.643Z,308.79
2019-05-25T10:19:54.670Z,308.75
2019-05-25T10:20:54.637Z,310.84
2019-05-25T10:21:54.661Z,309.35
2019-05-25T10:22:54.600Z,309.72
2019-05-25T10:23:54.574Z,310.15
2019-05-25T10:24:54.560Z,311.34
2019-05-25T10:25:54.563Z,308.07
2019-05-25T10:26:54.542Z,310.18
2019-05-25T10:27:54.535Z,310.27
2019-05-25T10:28:54.530Z,312.04
2019-05-25T10:29:54.557Z,307.66
2019-05-25T10:30:54.515Z,311.42
2019-05-25T10:31:54.505Z,311.24
2019-05-25T10:32:54.483Z,306.76
2019-05-25T10:33:54.480Z,307.03
2019-05-25T10:34:54.473Z,310.93
2019-05-25T10:35:54.446Z,307.28
2019-05-25T10:36:54.461Z,311.33
2019-05-25T10:37:54.436Z,307.31
2019-05-25T10:38:54.411Z,307.65
2019-05-25T10:39:54.407Z,304.57
2019-05-25T10:40:54.398Z,308.89
2019-05-25T10:41:54.406Z,309.25
2019-05-25T10:42:54.406Z,309.56
2019-05-25T10:43:54.362Z,310.30
2019-05-25T10:44:54.372Z,312.54
2019-05-25T10:45:54.343Z,309.61
2019-05-25T10:46:54.361Z,306.26
2019-05-25T10:47:54.343Z,310.86
2019-05-25T10:48:54.344Z,309.34
2019-05-25T10:49:54.302Z,309.96
2019-05-25T10:50:54.304Z,310.63
2019-05-25T10:51:54.301Z,311.02
2019-05-25T10:52:54.293Z,310.31
2019-05-25T10:53:54.313Z,309.60
2019-05-25T10:54:54.250Z,309.59
2019-05-25T10:55:54.234Z,310.70
2019-05-25T10:56:54.272Z,311.82
2019-05-25T10:57:54.265Z,308.47
2019-05-25T10:58:54.198Z,308.95
2019-05-25T10:59:54.201Z,308.14
2019-05-25T11:00:54.177Z,310.32
2019-05-25T11:01:54.178Z,307.56
2019-05-25T11:02:54.191Z,309.62
2019-05-25T11:03:54.139Z,311.81
2019-05-25T11:04:54.136Z,308.36
2019-05-25T11:05:54.136Z,312.11
2019-05-25T11:06:54.115Z,313.75
2019-05-25T11:07:54.127Z,309.88
2019-05-25T11:08:54.091Z,309.18
2019-05-25T11:09:54.081Z,313.07
2019-05-25T11:10:54.064Z,308.28
2019-05-25T11:11:54.075Z,313.37
2019-05-25T11:12:54.060Z,312.31
2019-05-25T11:13:54.056Z,308.37
2019-05-25T11:14:54.034Z,307.70
2019-05-25T11:15:54.015Z,311.63
2019-05-25T11:16:54.004Z,313.34
2019-05-25T11:17:53.984Z,309.02
2019-05-25T11:18:53.988Z,314.15
2019-05-25T11:19:53.989Z,307.99
2019-05-25T11:20:53.961Z,312.32
2019-05-25T11:21:53.996Z,308.20
2019-05-25T11:22:53.932Z,310.42
2019-05-25T11:23:53.952Z,314.10
2019-05-25T11:24:53.922Z,315.38
2019-05-25T11:25:53.920Z,309.60
2019-05-25T11:26:53.907Z,310.11
2019-05-25T11:27:53.883Z,313.06
2019-05-25T11:28:53.881Z,309.43
2019-05-25T11:30:07.885Z,310.35
2019-05-25T11:30:54.845Z,307.59
2019-05-25T11:31:58.689Z,307.54
2019-05-25T11:32:54.842Z,309.23
2019-05-25T11:33:53.827Z,308.94
2019-05-25T11:34:53.821Z,306.55
2019-05-25T11:35:53.798Z,305.35
2019-05-25T11:36:53.775Z,307.32
2019-05-25T11:37:53.779Z,305.60
2019-05-25T11:38:53.777Z,309.36
2019-05-25T11:39:53.757Z,307.50
2019-05-25T11:40:53.734Z,307.27
2019-05-25T11:41:53.725Z,313.81
2019-05-25T11:42:53.723Z,308.85
2019-05-25T11:43:53.710Z,308.16
2019-05-25T11:44:53.713Z,304.95
2019-05-25T11:45:53.689Z,304.08
2019-05-25T11:46:53.694Z,309.23
2019-05-25T11:47:53.671Z,309.14
2019-05-25T11:48:53.637Z,311.13
2019-05-25T11:49:53.782Z,307.83
2019-05-25T11:50:53.737Z,306.47
2019-05-25T11:51:53.632Z,306.52
2019-05-25T11:52:53.701Z,306.25
2019-05-25T11:53:53.605Z,308.71
2019-05-25T11:54:53.578Z,306.38
2019-05-25T11:55:53.586Z,310.65
2019-05-25T11:56:53.595Z,307.61
2019-05-25T11:57:53.576Z,310.63
2019-05-25T11:58:53.544Z,306.51
2019-05-25T11:59:53.539Z,306.33
2019-05-25T12:00:53.521Z,308.73
2019-05-25T12:01:53.532Z,308.04
2019-05-25T12:02:53.497Z,312.08
2019-05-25T12:03:53.502Z,310.27
2019-05-25T12:04:53.514Z,309.88
2019-05-25T12:05:53.478Z,306.91
2019-05-25T12:06:53.463Z,308.62
2019-05-25T12:07:53.466Z,308.16
2019-05-25T12:08:53.441Z,308.78
2019-05-25T12:09:53.436Z,312.48
2019-05-25T12:10:53.423Z,307.82
2019-05-25T12:11:53.399Z,309.61
2019-05-25T12:12:53.408Z,309.91
2019-05-25T12:13:53.384Z,312.16
2019-05-25T12:14:53.382Z,310.65
2019-05-25T12:15:53.390Z,307.76
2019-05-25T12:16:53.355Z,309.05
2019-05-25T12:17:53.344Z,306.35
2019-05-25T12:18:53.359Z,310.07
2019-05-25T12:19:53.308Z,309.28
2019-05-25T12:20:53.325Z,307.88
2019-05-25T12:21:53.284Z,310.29
2019-05-25T12:22:53.357Z,308.06
2019-05-25T12:23:53.304Z,309.05
2019-05-25T12:24:53.270Z,308.26
2019-05-25T12:25:53.247Z,314.98
2019-05-25T12:26:53.248Z,312.79
2019-05-25T12:27:53.234Z,313.30